Time;durP1;ratioP1;P1;durP2;ratioP2;P2;SDS_P1;SDS_P2;PMS_P1;PMS_P2;Temp;Humidity;BMP_temperature;BMP_pressure;BME280_temperature;BME280_humidity;BME280_pressure;Samples;Min_cycle;Max_cycle;Signal;HPM_P1;HPM_P2
2022/07/08 00:01:10;;;;;;;;;;;13.60;99.90;;;;;;5074269;28;19904;-69
2022/07/08 00:03:35;;;;;;;;;;;13.50;99.90;;;;;;5106371;28;19912;-69
2022/07/08 00:06:01;;;;;;;;;;;13.50;99.90;;;;;;5057102;28;19915;-68
2022/07/08 00:08:27;;;;;;;;;;;13.40;99.90;;;;;;5054497;28;19908;-69
2022/07/08 00:10:52;;;;;;;;;;;13.40;99.90;;;;;;5052001;28;19939;-69
2022/07/08 00:13:18;;;;;;;;;;;13.40;99.90;;;;;;5053750;28;19905;-69
2022/07/08 00:15:43;;;;;;;;;;;13.40;99.90;;;;;;5054051;28;19909;-69
2022/07/08 00:18:09;;;;;;;;;;;13.40;99.90;;;;;;5053776;28;19944;-69
2022/07/08 00:20:35;;;;;;;;;;;13.40;99.90;;;;;;5072080;28;19916;-69
2022/07/08 00:23:00;;;;;;;;;;;13.40;99.90;;;;;;5074039;28;19905;-69
2022/07/08 00:25:26;;;;;;;;;;;13.40;99.90;;;;;;5073765;28;20042;-69
2022/07/08 00:27:51;;;;;;;;;;;13.40;99.90;;;;;;5073748;28;20360;-69
2022/07/08 00:30:17;;;;;;;;;;;13.40;99.90;;;;;;5073988;28;19949;-68
2022/07/08 00:32:42;;;;;;;;;;;13.40;99.90;;;;;;5073444;28;19904;-68
2022/07/08 00:35:08;;;;;;;;;;;13.40;99.90;;;;;;5053537;28;19966;-69
2022/07/08 00:37:34;;;;;;;;;;;13.30;99.90;;;;;;5053797;28;19915;-69
2022/07/08 00:39:59;;;;;;;;;;;13.30;99.90;;;;;;5053541;28;19948;-69
2022/07/08 00:42:25;;;;;;;;;;;13.30;99.90;;;;;;5053818;28;19919;-69
2022/07/08 00:44:50;;;;;;;;;;;13.30;99.90;;;;;;5054007;28;19939;-69
2022/07/08 00:47:16;;;;;;;;;;;13.30;99.90;;;;;;5053414;28;19909;-68
2022/07/08 00:49:42;;;;;;;;;;;13.30;99.90;;;;;;5073826;28;19929;-69
2022/07/08 00:52:08;;;;;;;;;;;13.30;99.90;;;;;;5073490;28;19904;-69
2022/07/08 00:54:34;;;;;;;;;;;13.20;99.90;;;;;;5073952;28;19904;-69
2022/07/08 00:57:00;;;;;;;;;;;13.30;99.90;;;;;;5073382;28;19912;-69
2022/07/08 00:59:25;;;;;;;;;;;13.30;99.90;;;;;;5073705;28;19943;-68
2022/07/08 01:01:51;;;;;;;;;;;13.30;99.90;;;;;;5070022;28;19909;-68
2022/07/08 01:04:16;;;;;;;;;;;13.30;99.90;;;;;;5053407;28;19908;-69
2022/07/08 01:06:42;;;;;;;;;;;13.30;99.90;;;;;;5053316;28;19954;-69
2022/07/08 01:09:09;;;;;;;;;;;13.30;99.90;;;;;;5053297;28;19911;-69
2022/07/08 01:11:34;;;;;;;;;;;13.30;99.90;;;;;;5053624;28;20280;-70
2022/07/08 01:14:00;;;;;;;;;;;13.30;99.90;;;;;;5053826;28;19905;-71
2022/07/08 01:16:26;;;;;;;;;;;13.30;99.90;;;;;;5054408;28;19912;-70
2022/07/08 01:18:51;;;;;;;;;;;13.30;99.90;;;;;;5052011;28;19959;-71
2022/07/08 01:21:17;;;;;;;;;;;13.30;99.90;;;;;;5053212;28;20360;-70
2022/07/08 01:23:42;;;;;;;;;;;13.30;99.90;;;;;;5056288;28;19999;-70
2022/07/08 01:26:09;;;;;;;;;;;13.40;99.90;;;;;;5058130;28;19909;-69
2022/07/08 01:28:35;;;;;;;;;;;13.50;99.90;;;;;;5056832;28;19904;-70
2022/07/08 01:31:02;;;;;;;;;;;13.40;99.90;;;;;;5056775;28;19962;-70
2022/07/08 01:33:28;;;;;;;;;;;13.40;99.90;;;;;;5056491;28;19955;-70
2022/07/08 01:35:53;;;;;;;;;;;13.30;99.90;;;;;;5056620;28;20311;-70
2022/07/08 01:38:19;;;;;;;;;;;13.40;99.90;;;;;;5056680;28;19909;-70
2022/07/08 01:40:44;;;;;;;;;;;13.40;99.90;;;;;;5066201;28;19912;-69
2022/07/08 01:43:10;;;;;;;;;;;13.40;99.90;;;;;;5076892;28;19912;-69
2022/07/08 01:45:35;;;;;;;;;;;13.30;99.90;;;;;;5076413;28;19927;-70
2022/07/08 01:48:01;;;;;;;;;;;13.30;99.90;;;;;;5076500;28;19927;-70
2022/07/08 01:50:27;;;;;;;;;;;13.20;99.90;;;;;;5076397;28;19911;-70
2022/07/08 01:52:52;;;;;;;;;;;13.20;99.90;;;;;;5076460;28;19969;-70
2022/07/08 01:55:18;;;;;;;;;;;13.20;99.90;;;;;;5065189;28;19959;-70
2022/07/08 01:57:43;;;;;;;;;;;13.10;99.90;;;;;;5056928;28;19912;-71
2022/07/08 02:00:09;;;;;;;;;;;13.20;99.90;;;;;;5056551;28;20031;-71
2022/07/08 02:02:35;;;;;;;;;;;13.20;99.90;;;;;;5056285;28;19905;-71
2022/07/08 02:05:00;;;;;;;;;;;13.20;99.90;;;;;;5056084;28;20353;-71
2022/07/08 02:07:26;;;;;;;;;;;13.30;99.90;;;;;;5056113;28;19995;-71
2022/07/08 02:09:52;;;;;;;;;;;13.30;99.90;;;;;;5056056;28;20324;-70
2022/07/08 02:12:20;;;;;;;;;;;13.30;99.90;;;;;;5068987;28;19915;-70
2022/07/08 02:14:49;;;;;;;;;;;13.30;99.90;;;;;;5075939;28;20007;-70
2022/07/08 02:17:16;;;;;;;;;;;13.30;99.90;;;;;;5075901;28;19912;-71
2022/07/08 02:19:42;;;;;;;;;;;13.20;99.90;;;;;;5075925;28;19904;-71
2022/07/08 02:22:08;;;;;;;;;;;13.20;99.90;;;;;;5076212;28;19911;-71
2022/07/08 02:24:34;;;;;;;;;;;13.20;99.90;;;;;;5075729;28;19962;-70
2022/07/08 02:26:59;;;;;;;;;;;13.20;99.90;;;;;;5076035;28;19908;-71
2022/07/08 02:29:25;;;;;;;;;;;13.20;99.90;;;;;;5058132;28;20003;-71
2022/07/08 02:31:50;;;;;;;;;;;13.30;99.90;;;;;;5055941;28;19940;-71
2022/07/08 02:34:16;;;;;;;;;;;13.20;99.90;;;;;;5055102;28;19920;-71
2022/07/08 02:36:41;;;;;;;;;;;13.30;99.90;;;;;;5055459;28;19913;-71
2022/07/08 02:39:08;;;;;;;;;;;13.30;99.90;;;;;;5055763;28;19921;-71
2022/07/08 02:41:33;;;;;;;;;;;13.30;99.90;;;;;;5055781;28;20319;-71
2022/07/08 02:43:59;;;;;;;;;;;13.30;99.90;;;;;;5055379;28;20419;-71
2022/07/08 02:46:24;;;;;;;;;;;13.30;99.90;;;;;;5072460;28;19916;-69
2022/07/08 02:48:50;;;;;;;;;;;13.30;99.90;;;;;;5075330;28;19957;-70
2022/07/08 02:51:15;;;;;;;;;;;13.30;99.90;;;;;;5075469;28;19904;-70
2022/07/08 02:53:41;;;;;;;;;;;13.20;99.90;;;;;;5075140;28;19904;-70
2022/07/08 02:56:06;;;;;;;;;;;13.20;99.90;;;;;;5075143;28;19912;-70
2022/07/08 02:58:32;;;;;;;;;;;13.20;99.90;;;;;;5075664;28;19904;-70
2022/07/08 03:00:58;;;;;;;;;;;13.20;99.90;;;;;;5075610;28;20252;-70
2022/07/08 03:03:23;;;;;;;;;;;13.10;99.90;;;;;;5058376;28;19915;-70
2022/07/08 03:05:49;;;;;;;;;;;13.10;99.90;;;;;;5054995;28;19967;-70
2022/07/08 03:08:14;;;;;;;;;;;13.20;99.90;;;;;;5055255;28;19950;-70
2022/07/08 03:10:40;;;;;;;;;;;13.20;99.90;;;;;;5053933;28;19952;-70
2022/07/08 03:13:05;;;;;;;;;;;13.20;99.90;;;;;;5055129;28;19989;-70
2022/07/08 03:15:31;;;;;;;;;;;13.30;99.90;;;;;;5054670;28;19954;-70
2022/07/08 03:17:56;;;;;;;;;;;13.20;99.90;;;;;;5054799;28;19904;-70
2022/07/08 03:20:22;;;;;;;;;;;13.20;99.90;;;;;;5055897;28;20278;-69
2022/07/08 03:22:47;;;;;;;;;;;13.20;99.90;;;;;;5054656;28;19905;-70
2022/07/08 03:25:13;;;;;;;;;;;13.20;99.90;;;;;;5054545;28;19905;-70
2022/07/08 03:27:39;;;;;;;;;;;13.20;99.90;;;;;;5054837;28;20418;-70
2022/07/08 03:30:05;;;;;;;;;;;13.10;99.90;;;;;;5054551;28;19954;-70
2022/07/08 03:32:30;;;;;;;;;;;13.10;99.90;;;;;;5054472;28;20034;-71
2022/07/08 03:34:56;;;;;;;;;;;13.20;99.90;;;;;;5054293;28;20253;-70
2022/07/08 03:37:21;;;;;;;;;;;13.20;99.90;;;;;;5067877;28;19955;-70
2022/07/08 03:39:48;;;;;;;;;;;13.20;99.90;;;;;;5074155;28;19915;-70
2022/07/08 03:42:13;;;;;;;;;;;13.10;99.90;;;;;;5074256;28;19972;-70
2022/07/08 03:44:39;;;;;;;;;;;13.10;99.90;;;;;;5073851;28;19951;-70
2022/07/08 03:47:04;;;;;;;;;;;13.10;99.90;;;;;;5071802;28;19927;-69
2022/07/08 03:49:30;;;;;;;;;;;13.20;99.90;;;;;;5073832;28;19991;-70
2022/07/08 03:51:56;;;;;;;;;;;13.10;99.90;;;;;;5072887;28;19904;-70
2022/07/08 03:54:21;;;;;;;;;;;13.20;99.90;;;;;;5072192;28;19961;-69
2022/07/08 03:56:47;;;;;;;;;;;13.20;99.90;;;;;;5074053;28;19938;-70
2022/07/08 03:59:12;;;;;;;;;;;13.20;99.90;;;;;;5074059;28;19904;-70
2022/07/08 04:01:38;;;;;;;;;;;13.20;99.90;;;;;;5074000;28;20387;-70
2022/07/08 04:04:03;;;;;;;;;;;13.20;99.90;;;;;;5073885;28;19936;-70
2022/07/08 04:06:29;;;;;;;;;;;13.20;99.90;;;;;;5073947;28;20380;-69
2022/07/08 04:08:54;;;;;;;;;;;13.10;99.90;;;;;;5106462;28;20399;-70
2022/07/08 04:11:20;;;;;;;;;;;13.10;99.90;;;;;;5053507;28;19954;-70
2022/07/08 04:13:45;;;;;;;;;;;13.10;99.90;;;;;;5052583;28;19904;-69
2022/07/08 04:16:14;;;;;;;;;;;13.10;99.90;;;;;;5053716;28;19908;-69
2022/07/08 04:18:40;;;;;;;;;;;13.10;99.90;;;;;;5054091;28;20036;-69
2022/07/08 04:21:06;;;;;;;;;;;13.10;99.90;;;;;;5053795;28;19909;-69
2022/07/08 04:23:32;;;;;;;;;;;13.10;99.90;;;;;;5071141;28;20381;-69
2022/07/08 04:25:58;;;;;;;;;;;13.10;99.90;;;;;;5072994;28;20002;-69
2022/07/08 04:28:23;;;;;;;;;;;13.10;99.90;;;;;;5073989;28;20266;-70
2022/07/08 04:30:49;;;;;;;;;;;13.00;99.90;;;;;;5073409;28;19916;-71
2022/07/08 04:33:15;;;;;;;;;;;13.00;99.90;;;;;;5105079;28;19905;-70
2022/07/08 04:35:40;;;;;;;;;;;13.00;99.90;;;;;;5072313;28;19919;-70
2022/07/08 04:38:06;;;;;;;;;;;12.90;99.90;;;;;;5072777;28;19905;-70
2022/07/08 04:40:31;;;;;;;;;;;12.90;99.90;;;;;;5073163;28;19904;-70
2022/07/08 04:42:57;;;;;;;;;;;13.00;99.90;;;;;;5068405;28;19915;-70
2022/07/08 04:45:23;;;;;;;;;;;13.00;99.90;;;;;;5053534;28;20291;-69
2022/07/08 04:47:49;;;;;;;;;;;13.00;99.90;;;;;;5053502;28;19904;-69
2022/07/08 04:50:15;;;;;;;;;;;13.00;99.90;;;;;;5052270;28;19970;-71
2022/07/08 04:52:40;;;;;;;;;;;12.90;99.90;;;;;;5053436;28;19971;-71
2022/07/08 04:55:07;;;;;;;;;;;12.80;99.90;;;;;;5068358;28;19908;-70
2022/07/08 04:57:32;;;;;;;;;;;12.70;99.90;;;;;;5107497;28;19908;-71
2022/07/08 04:59:59;;;;;;;;;;;12.70;99.90;;;;;;5077705;28;19904;-70
2022/07/08 05:02:24;;;;;;;;;;;12.70;99.90;;;;;;5077416;28;19912;-70
2022/07/08 05:04:50;;;;;;;;;;;12.70;99.90;;;;;;5077568;28;19904;-71
2022/07/08 05:07:16;;;;;;;;;;;12.60;99.90;;;;;;5077274;28;20038;-70
2022/07/08 05:09:41;;;;;;;;;;;12.60;99.90;;;;;;5060141;28;19909;-70
2022/07/08 05:12:07;;;;;;;;;;;12.70;99.90;;;;;;5057173;28;19951;-70
2022/07/08 05:14:33;;;;;;;;;;;12.60;99.90;;;;;;5057057;28;19905;-70
2022/07/08 05:16:58;;;;;;;;;;;12.70;99.90;;;;;;5057346;28;19912;-70
2022/07/08 05:19:24;;;;;;;;;;;12.60;99.90;;;;;;5057309;28;19920;-70
2022/07/08 05:21:49;;;;;;;;;;;12.60;99.90;;;;;;5055714;28;20315;-70
2022/07/08 05:24:15;;;;;;;;;;;12.50;99.90;;;;;;5057188;28;20027;-69
2022/07/08 05:26:40;;;;;;;;;;;12.50;99.90;;;;;;5076265;28;19909;-70
2022/07/08 05:29:06;;;;;;;;;;;12.50;99.90;;;;;;5109474;28;19904;-70
2022/07/08 05:31:31;;;;;;;;;;;12.60;99.90;;;;;;5077134;28;19905;-70
2022/07/08 05:33:57;;;;;;;;;;;12.60;99.90;;;;;;5076910;28;19916;-70
2022/07/08 05:36:23;;;;;;;;;;;12.60;99.90;;;;;;5076663;28;19913;-70
2022/07/08 05:38:49;;;;;;;;;;;12.60;99.90;;;;;;5077581;28;19912;-69
2022/07/08 05:41:14;;;;;;;;;;;12.60;99.90;;;;;;5074028;28;19904;-69
2022/07/08 05:43:40;;;;;;;;;;;12.60;99.90;;;;;;5073565;28;19914;-69
2022/07/08 05:46:06;;;;;;;;;;;12.60;99.90;;;;;;5076756;28;19991;-69
2022/07/08 05:48:31;;;;;;;;;;;12.60;99.90;;;;;;5076511;28;19920;-68
2022/07/08 05:50:57;;;;;;;;;;;12.50;99.90;;;;;;5076504;28;19957;-69
2022/07/08 05:53:22;;;;;;;;;;;12.40;99.90;;;;;;5076628;28;19908;-68
2022/07/08 05:55:48;;;;;;;;;;;12.40;99.90;;;;;;5076301;28;19908;-69
2022/07/08 05:58:13;;;;;;;;;;;12.30;99.90;;;;;;5107485;28;19928;-69
2022/07/08 06:00:39;;;;;;;;;;;12.30;99.90;;;;;;5076861;28;20405;-69
2022/07/08 06:03:05;;;;;;;;;;;12.30;99.90;;;;;;5076236;28;19904;-69
2022/07/08 06:05:31;;;;;;;;;;;12.30;99.90;;;;;;5076396;28;19904;-69
2022/07/08 06:07:57;;;;;;;;;;;12.30;99.90;;;;;;5076363;28;19904;-67
2022/07/08 06:10:23;;;;;;;;;;;12.30;99.90;;;;;;5107792;28;19987;-69
2022/07/08 06:12:50;;;;;;;;;;;12.40;99.90;;;;;;5076405;28;19905;-69
2022/07/08 06:15:15;;;;;;;;;;;12.40;99.90;;;;;;5075754;28;19912;-69
2022/07/08 06:17:41;;;;;;;;;;;12.30;99.90;;;;;;5075917;28;19908;-69
2022/07/08 06:20:07;;;;;;;;;;;12.30;99.90;;;;;;5076226;28;19908;-69
2022/07/08 06:22:33;;;;;;;;;;;12.30;99.90;;;;;;5075876;28;19905;-69
2022/07/08 06:24:59;;;;;;;;;;;12.30;99.90;;;;;;5076133;28;19916;-69
2022/07/08 06:27:25;;;;;;;;;;;12.20;99.90;;;;;;5075783;28;19904;-69
2022/07/08 06:29:50;;;;;;;;;;;12.30;99.90;;;;;;5075762;28;20261;-69
2022/07/08 06:32:16;;;;;;;;;;;12.30;99.90;;;;;;5067514;28;20269;-69
2022/07/08 06:34:43;;;;;;;;;;;12.30;99.90;;;;;;5055464;28;19913;-69
2022/07/08 06:37:08;;;;;;;;;;;12.40;99.90;;;;;;5055859;28;19995;-69
2022/07/08 06:39:34;;;;;;;;;;;12.40;99.90;;;;;;5055827;28;19905;-69
2022/07/08 06:41:59;;;;;;;;;;;12.40;99.90;;;;;;5055530;28;19915;-69
2022/07/08 06:44:25;;;;;;;;;;;12.50;99.90;;;;;;5055689;28;19911;-69
2022/07/08 06:46:51;;;;;;;;;;;12.60;99.90;;;;;;5055414;28;19905;-69
2022/07/08 06:49:16;;;;;;;;;;;12.50;99.90;;;;;;5063550;28;19909;-69
2022/07/08 06:51:42;;;;;;;;;;;12.50;99.90;;;;;;5075190;28;19909;-69
2022/07/08 06:56:51;;;;;;;;;;;12.40;99.90;;;;;;5075424;28;19915;-69
2022/07/08 06:59:17;;;;;;;;;;;12.40;99.90;;;;;;5107802;28;20357;-69
2022/07/08 07:01:42;;;;;;;;;;;12.50;99.90;;;;;;5075383;28;19904;-69
2022/07/08 07:04:09;;;;;;;;;;;12.50;99.90;;;;;;5074996;28;20034;-69
2022/07/08 07:06:35;;;;;;;;;;;12.60;99.90;;;;;;5074884;28;19905;-69
2022/07/08 07:09:00;;;;;;;;;;;12.70;99.90;;;;;;5107525;28;20272;-69
2022/07/08 07:11:26;;;;;;;;;;;12.80;99.90;;;;;;5075166;28;19919;-69
2022/07/08 07:13:51;;;;;;;;;;;12.80;99.90;;;;;;5074765;28;20360;-69
2022/07/08 07:16:17;;;;;;;;;;;12.90;99.90;;;;;;5074724;28;19909;-69
2022/07/08 07:18:42;;;;;;;;;;;12.90;99.90;;;;;;5074774;28;19910;-69
2022/07/08 07:21:09;;;;;;;;;;;12.90;99.90;;;;;;5074807;28;19910;-69
2022/07/08 07:23:35;;;;;;;;;;;12.90;99.90;;;;;;5059582;28;19909;-69
2022/07/08 07:26:00;;;;;;;;;;;12.90;99.90;;;;;;5054717;28;19912;-69
2022/07/08 07:28:26;;;;;;;;;;;12.90;99.90;;;;;;5054663;28;19905;-69
2022/07/08 07:30:51;;;;;;;;;;;12.90;99.90;;;;;;5054607;28;19927;-69
2022/07/08 07:33:17;;;;;;;;;;;13.00;99.90;;;;;;5053124;28;19904;-70
2022/07/08 07:35:43;;;;;;;;;;;13.00;99.90;;;;;;5054473;28;19965;-69
2022/07/08 07:38:08;;;;;;;;;;;13.00;99.90;;;;;;5054705;28;19905;-69
2022/07/08 07:40:34;;;;;;;;;;;13.10;99.90;;;;;;5055941;28;19916;-69
2022/07/08 07:42:59;;;;;;;;;;;13.10;99.90;;;;;;5055479;28;19969;-69
2022/07/08 07:45:25;;;;;;;;;;;13.20;99.90;;;;;;5052987;28;19920;-69
2022/07/08 07:47:50;;;;;;;;;;;13.10;99.90;;;;;;5054501;28;19905;-69
2022/07/08 07:50:16;;;;;;;;;;;13.10;99.90;;;;;;5053229;28;19954;-69
2022/07/08 07:52:41;;;;;;;;;;;13.10;99.90;;;;;;5053191;28;19905;-69
2022/07/08 07:55:08;;;;;;;;;;;13.10;99.90;;;;;;5054089;28;19982;-69
2022/07/08 07:57:35;;;;;;;;;;;13.10;99.90;;;;;;5054202;28;19954;-69
2022/07/08 08:00:00;;;;;;;;;;;13.10;99.90;;;;;;5054330;28;20014;-69
2022/07/08 08:02:26;;;;;;;;;;;13.10;99.90;;;;;;5054032;28;19944;-69
2022/07/08 08:04:51;;;;;;;;;;;13.10;99.90;;;;;;5053941;28;19905;-69
2022/07/08 08:07:17;;;;;;;;;;;13.20;99.90;;;;;;5053983;28;19905;-69
2022/07/08 08:09:42;;;;;;;;;;;13.20;99.90;;;;;;5053926;28;19919;-69
2022/07/08 08:12:08;;;;;;;;;;;13.20;99.90;;;;;;5054954;28;19905;-69
2022/07/08 08:14:33;;;;;;;;;;;13.20;99.90;;;;;;5053759;28;19908;-69
2022/07/08 08:16:59;;;;;;;;;;;13.20;99.90;;;;;;5053749;28;19919;-69
2022/07/08 08:19:24;;;;;;;;;;;13.30;99.90;;;;;;5053837;28;19904;-69
2022/07/08 08:21:50;;;;;;;;;;;13.30;99.90;;;;;;5053761;28;19909;-69
2022/07/08 08:24:16;;;;;;;;;;;13.30;99.90;;;;;;5054058;28;19905;-69
2022/07/08 08:26:43;;;;;;;;;;;13.40;99.90;;;;;;5054326;28;20277;-68
2022/07/08 08:29:08;;;;;;;;;;;13.40;99.90;;;;;;5054802;28;20376;-68
2022/07/08 08:31:34;;;;;;;;;;;13.40;99.90;;;;;;5053200;28;19919;-68
2022/07/08 08:34:00;;;;;;;;;;;13.40;99.90;;;;;;5053760;28;19924;-68
2022/07/08 08:36:26;;;;;;;;;;;13.40;99.90;;;;;;5053576;28;20310;-68
2022/07/08 08:38:52;;;;;;;;;;;13.50;99.90;;;;;;5053529;28;19971;-68
2022/07/08 08:41:18;;;;;;;;;;;13.50;99.90;;;;;;5052304;28;20317;-68
2022/07/08 08:43:43;;;;;;;;;;;13.50;99.90;;;;;;5053788;28;20377;-68
2022/07/08 08:46:10;;;;;;;;;;;13.60;99.90;;;;;;5053550;28;19909;-68
2022/07/08 08:48:38;;;;;;;;;;;13.70;99.90;;;;;;5053433;28;19905;-68
2022/07/08 08:51:06;;;;;;;;;;;13.80;99.90;;;;;;5053541;28;20349;-68
2022/07/08 08:53:41;;;;;;;;;;;13.90;99.90;;;;;;5053400;28;19958;-68
2022/07/08 08:56:10;;;;;;;;;;;14.00;99.90;;;;;;5053754;28;19905;-68
2022/07/08 08:58:39;;;;;;;;;;;14.10;99.90;;;;;;5053968;28;19905;-68
2022/07/08 09:01:08;;;;;;;;;;;14.10;99.90;;;;;;5054002;28;19928;-67
2022/07/08 09:03:34;;;;;;;;;;;14.20;99.90;;;;;;5054573;28;19915;-67
2022/07/08 09:06:00;;;;;;;;;;;14.20;99.90;;;;;;5053697;28;19908;-68
2022/07/08 09:08:25;;;;;;;;;;;14.10;99.90;;;;;;5053918;28;19999;-68
2022/07/08 09:10:51;;;;;;;;;;;14.20;99.90;;;;;;5053309;28;20339;-68
2022/07/08 09:13:16;;;;;;;;;;;14.20;99.90;;;;;;5053236;28;19905;-67
2022/07/08 09:15:46;;;;;;;;;;;14.20;99.90;;;;;;5053175;28;20335;-69
2022/07/08 09:18:13;;;;;;;;;;;14.20;99.90;;;;;;5053240;28;20323;-67
2022/07/08 09:20:52;;;;;;;;;;;14.30;99.90;;;;;;5063748;28;20256;-67
2022/07/08 09:23:18;;;;;;;;;;;14.30;99.90;;;;;;5072876;28;19995;-68
2022/07/08 09:25:48;;;;;;;;;;;14.40;99.90;;;;;;5073519;28;19904;-68
2022/07/08 09:28:14;;;;;;;;;;;14.50;99.90;;;;;;5073207;28;20473;-73
2022/07/08 09:30:42;;;;;;;;;;;14.60;99.90;;;;;;5071903;28;19908;-67
2022/07/08 09:33:08;;;;;;;;;;;14.60;99.90;;;;;;5073519;28;19905;-67
2022/07/08 09:35:35;;;;;;;;;;;14.70;99.90;;;;;;5072891;28;19913;-67
2022/07/08 09:38:01;;;;;;;;;;;14.70;99.90;;;;;;5071600;28;19908;-67
2022/07/08 09:40:27;;;;;;;;;;;14.80;99.90;;;;;;5073403;28;19904;-67
2022/07/08 09:42:52;;;;;;;;;;;14.80;99.90;;;;;;5073052;28;19911;-67
2022/07/08 09:45:18;;;;;;;;;;;14.80;99.90;;;;;;5075430;28;19944;-67
2022/07/08 09:47:43;;;;;;;;;;;14.80;99.90;;;;;;5076531;28;19991;-67
2022/07/08 09:50:09;;;;;;;;;;;14.80;99.90;;;;;;5076501;28;19908;-67
2022/07/08 09:52:35;;;;;;;;;;;14.80;99.90;;;;;;5076454;28;19905;-67
2022/07/08 09:55:02;;;;;;;;;;;14.90;99.90;;;;;;5074749;28;19915;-67
2022/07/08 09:57:28;;;;;;;;;;;15.00;99.90;;;;;;5076642;28;20007;-69
2022/07/08 09:59:54;;;;;;;;;;;15.20;99.90;;;;;;5076387;28;19905;-67
2022/07/08 10:02:20;;;;;;;;;;;15.50;99.90;;;;;;5076278;28;19977;-67
2022/07/08 10:04:48;;;;;;;;;;;15.80;99.90;;;;;;5108906;28;20353;-67
2022/07/08 10:07:13;;;;;;;;;;;16.00;99.90;;;;;;5076507;28;20004;-67
2022/07/08 10:09:39;;;;;;;;;;;16.20;99.90;;;;;;5076503;28;19999;-67
2022/07/08 10:12:06;;;;;;;;;;;16.50;99.90;;;;;;5106726;28;20364;-67
2022/07/08 10:14:31;;;;;;;;;;;16.70;99.90;;;;;;5075960;28;20358;-67
2022/07/08 10:16:58;;;;;;;;;;;17.00;99.90;;;;;;5076270;28;20006;-67
2022/07/08 10:19:31;;;;;;;;;;;17.30;99.90;;;;;;5076017;28;19905;-67
2022/07/08 10:21:57;;;;;;;;;;;17.30;99.90;;;;;;5076229;28;19905;-68
2022/07/08 10:24:27;;;;;;;;;;;17.30;99.10;;;;;;5075992;28;19904;-67
2022/07/08 10:26:57;;;;;;;;;;;17.30;99.30;;;;;;5075846;28;20384;-68
2022/07/08 10:29:28;;;;;;;;;;;17.20;99.90;;;;;;5074060;28;19905;-67
2022/07/08 10:31:54;;;;;;;;;;;17.30;99.90;;;;;;5076069;28;19909;-68
2022/07/08 10:34:20;;;;;;;;;;;17.50;99.90;;;;;;5075873;28;19927;-68
2022/07/08 10:36:53;;;;;;;;;;;17.60;99.90;;;;;;5075870;28;19919;-68
2022/07/08 10:39:44;;;;;;;;;;;17.70;98.60;;;;;;5075934;28;19912;-67
2022/07/08 10:42:10;;;;;;;;;;;17.50;99.00;;;;;;5073403;28;19912;-68
2022/07/08 10:44:42;;;;;;;;;;;17.60;99.40;;;;;;5073871;28;19908;-68
2022/07/08 10:47:09;;;;;;;;;;;17.60;99.30;;;;;;5075437;28;19904;-68
2022/07/08 10:49:41;;;;;;;;;;;17.50;99.10;;;;;;5075689;28;20474;-68
2022/07/08 10:52:06;;;;;;;;;;;17.50;99.50;;;;;;5075671;28;19911;-67
2022/07/08 10:54:36;;;;;;;;;;;17.60;99.70;;;;;;5074864;28;19908;-68
2022/07/08 10:57:06;;;;;;;;;;;17.70;99.90;;;;;;5059247;28;19920;-68
2022/07/08 10:59:35;;;;;;;;;;;17.90;99.90;;;;;;5055782;28;20276;-68
2022/07/08 11:02:02;;;;;;;;;;;18.10;99.90;;;;;;5055175;28;19904;-68
2022/07/08 11:04:27;;;;;;;;;;;18.20;97.90;;;;;;5055037;28;20343;-67
2022/07/08 11:06:54;;;;;;;;;;;18.40;99.90;;;;;;5054165;28;19944;-67
2022/07/08 11:09:20;;;;;;;;;;;18.50;99.20;;;;;;5055353;28;19908;-68
2022/07/08 11:11:46;;;;;;;;;;;18.60;97.30;;;;;;5072933;28;19916;-68
2022/07/08 11:14:13;;;;;;;;;;;18.50;97.60;;;;;;5075389;28;19904;-68
2022/07/08 11:16:38;;;;;;;;;;;18.60;99.10;;;;;;5107473;28;19916;-68
2022/07/08 11:19:05;;;;;;;;;;;18.80;98.00;;;;;;5107329;28;19904;-69
2022/07/08 11:21:31;;;;;;;;;;;18.80;96.30;;;;;;5074547;28;19905;-69
2022/07/08 11:23:57;;;;;;;;;;;18.80;96.80;;;;;;5074538;28;20284;-69
2022/07/08 11:26:22;;;;;;;;;;;19.00;97.30;;;;;;5074729;28;19911;-68
2022/07/08 11:28:48;;;;;;;;;;;19.10;96.30;;;;;;5056364;28;20339;-68
2022/07/08 11:31:17;;;;;;;;;;;19.10;96.10;;;;;;5054593;28;20319;-68
2022/07/08 11:33:43;;;;;;;;;;;19.10;96.10;;;;;;5054233;28;20007;-68
2022/07/08 11:36:16;;;;;;;;;;;19.00;98.30;;;;;;5054475;28;20011;-68
2022/07/08 11:38:41;;;;;;;;;;;19.00;95.60;;;;;;5055250;28;19911;-70
2022/07/08 11:41:07;;;;;;;;;;;19.00;95.20;;;;;;5054439;28;19905;-71
2022/07/08 11:43:32;;;;;;;;;;;19.20;94.70;;;;;;5057370;28;19934;-70
2022/07/08 11:45:58;;;;;;;;;;;19.20;94.90;;;;;;5075773;28;19908;-71
2022/07/08 11:48:44;;;;;;;;;;;19.40;94.20;;;;;;5074533;28;20456;-71
2022/07/08 11:51:14;;;;;;;;;;;19.30;95.30;;;;;;5074148;28;19923;-70
2022/07/08 11:53:40;;;;;;;;;;;19.30;94.20;;;;;;5075011;28;20398;-71
2022/07/08 11:56:05;;;;;;;;;;;19.10;94.10;;;;;;5074408;28;19995;-71
2022/07/08 11:58:31;;;;;;;;;;;18.90;93.70;;;;;;5107012;28;19905;-71
2022/07/08 12:00:57;;;;;;;;;;;18.80;95.10;;;;;;5072427;28;19963;-70
2022/07/08 12:03:22;;;;;;;;;;;19.00;96.30;;;;;;5074548;28;19962;-70
2022/07/08 12:05:48;;;;;;;;;;;19.40;95.50;;;;;;5074309;28;19904;-70
2022/07/08 12:08:13;;;;;;;;;;;19.50;93.70;;;;;;5073193;28;19999;-70
2022/07/08 12:10:39;;;;;;;;;;;19.50;93.00;;;;;;5074294;28;19919;-70
2022/07/08 12:13:05;;;;;;;;;;;19.60;92.40;;;;;;5058960;28;19909;-71
2022/07/08 12:15:35;;;;;;;;;;;19.60;92.80;;;;;;5053818;28;19915;-70
2022/07/08 12:18:00;;;;;;;;;;;19.70;93.70;;;;;;5054002;28;19913;-70
2022/07/08 12:20:33;;;;;;;;;;;19.60;91.10;;;;;;5054370;28;19911;-70
2022/07/08 12:22:58;;;;;;;;;;;19.40;91.80;;;;;;5052440;28;19905;-70
2022/07/08 12:25:24;;;;;;;;;;;19.10;92.70;;;;;;5053780;28;19911;-70
2022/07/08 12:27:57;;;;;;;;;;;18.90;91.10;;;;;;5072130;28;19919;-70
2022/07/08 12:30:29;;;;;;;;;;;18.70;92.20;;;;;;5073780;28;20368;-70
2022/07/08 12:33:00;;;;;;;;;;;18.70;92.40;;;;;;5073673;28;19904;-70
2022/07/08 12:35:29;;;;;;;;;;;19.00;92.90;;;;;;5073658;28;20395;-70
2022/07/08 12:38:07;;;;;;;;;;;19.40;92.20;;;;;;5074006;28;19931;-69
2022/07/08 12:40:36;;;;;;;;;;;19.40;90.90;;;;;;5072423;28;19904;-70
2022/07/08 12:43:02;;;;;;;;;;;19.40;90.00;;;;;;5070871;28;19916;-70
2022/07/08 12:45:30;;;;;;;;;;;19.10;91.00;;;;;;5073894;28;19905;-70
2022/07/08 12:47:56;;;;;;;;;;;18.90;91.00;;;;;;5073623;28;19946;-70
2022/07/08 12:50:22;;;;;;;;;;;18.90;92.80;;;;;;5072779;28;19912;-71
2022/07/08 12:52:48;;;;;;;;;;;19.00;90.60;;;;;;5073487;28;20387;-71
2022/07/08 12:55:14;;;;;;;;;;;19.10;90.20;;;;;;5072914;28;19915;-69
2022/07/08 12:57:39;;;;;;;;;;;19.20;90.40;;;;;;5072899;28;19912;-70
2022/07/08 13:00:05;;;;;;;;;;;19.60;91.50;;;;;;5073605;28;20348;-69
2022/07/08 13:02:31;;;;;;;;;;;19.80;90.40;;;;;;5071983;28;20356;-70
2022/07/08 13:04:57;;;;;;;;;;;20.10;89.00;;;;;;5073536;28;19905;-70
2022/07/08 13:07:22;;;;;;;;;;;20.10;88.60;;;;;;5064182;28;19909;-70
2022/07/08 13:09:48;;;;;;;;;;;20.00;86.10;;;;;;5053378;28;20349;-71
2022/07/08 13:12:14;;;;;;;;;;;19.70;85.20;;;;;;5053643;28;19927;-71
2022/07/08 13:14:39;;;;;;;;;;;19.60;86.70;;;;;;5054587;28;19961;-70
2022/07/08 13:17:05;;;;;;;;;;;19.80;84.60;;;;;;5053044;28;19913;-71
2022/07/08 13:19:31;;;;;;;;;;;20.10;83.50;;;;;;5056263;28;19954;-71
2022/07/08 13:21:56;;;;;;;;;;;20.30;84.70;;;;;;5057069;28;20284;-71
2022/07/08 13:24:22;;;;;;;;;;;20.50;84.60;;;;;;5057143;28;19991;-71
2022/07/08 13:26:48;;;;;;;;;;;20.60;83.00;;;;;;5057297;28;19909;-70
2022/07/08 13:29:14;;;;;;;;;;;20.50;83.90;;;;;;5057163;28;19927;-70
2022/07/08 13:31:39;;;;;;;;;;;20.40;83.60;;;;;;5069106;28;19913;-69
2022/07/08 13:34:05;;;;;;;;;;;20.30;81.90;;;;;;5076833;28;20002;-70
2022/07/08 13:36:31;;;;;;;;;;;20.30;82.30;;;;;;5076748;28;19951;-71
2022/07/08 13:38:56;;;;;;;;;;;20.40;83.00;;;;;;5076775;28;20287;-70
2022/07/08 13:41:29;;;;;;;;;;;20.60;82.30;;;;;;5076956;28;19905;-69
2022/07/08 13:43:58;;;;;;;;;;;20.50;81.60;;;;;;5077181;28;19919;-69
2022/07/08 13:46:24;;;;;;;;;;;20.60;81.00;;;;;;5076509;28;19912;-69
2022/07/08 13:48:50;;;;;;;;;;;20.80;81.30;;;;;;5059762;28;19912;-70
2022/07/08 13:51:16;;;;;;;;;;;20.80;81.40;;;;;;5056517;28;19927;-71
2022/07/08 13:53:41;;;;;;;;;;;20.90;81.10;;;;;;5056773;28;19904;-72
2022/07/08 13:56:07;;;;;;;;;;;20.80;79.50;;;;;;5056345;28;19909;-70
2022/07/08 13:58:33;;;;;;;;;;;20.80;79.30;;;;;;5056408;28;19908;-70
2022/07/08 14:00:58;;;;;;;;;;;20.80;79.60;;;;;;5056669;28;19909;-69
2022/07/08 14:03:24;;;;;;;;;;;21.00;81.90;;;;;;5056269;28;19995;-69
2022/07/08 14:05:50;;;;;;;;;;;21.10;79.30;;;;;;5073711;28;19978;-69
2022/07/08 14:08:15;;;;;;;;;;;21.20;78.20;;;;;;5076454;28;19912;-68
2022/07/08 14:10:41;;;;;;;;;;;21.30;80.90;;;;;;5076152;28;20340;-70
2022/07/08 14:13:06;;;;;;;;;;;21.30;73.10;;;;;;5076709;28;19905;-72